createdAt,value
2016-12-18T00:00:05.243Z,72.53
2016-12-18T00:01:15.592Z,73.3
2016-12-18T00:02:25.606Z,73.11
2016-12-18T00:03:35.915Z,73.2
2016-12-18T00:04:46.258Z,73.11
2016-12-18T00:05:56.592Z,73.11
2016-12-18T00:07:07.008Z,72.92
2016-12-18T00:08:17.030Z,72.92
2016-12-18T00:09:27.155Z,73.01
2016-12-18T00:10:37.485Z,73.01
2016-12-18T00:11:47.809Z,72.92
2016-12-18T00:12:58.171Z,73.11
2016-12-18T00:14:07.878Z,73.11
2016-12-18T00:15:17.579Z,73.2
2016-12-18T00:16:27.917Z,73.2
2016-12-18T00:17:37.933Z,73.11
2016-12-18T00:18:48.309Z,73.2
2016-12-18T00:19:58.662Z,73.11
2016-12-18T00:21:08.699Z,73.2
2016-12-18T00:22:19.020Z,72.92
2016-12-18T00:23:28.758Z,73.11
2016-12-18T00:24:39.086Z,73.11
2016-12-18T00:25:49.420Z,73.01
2016-12-18T00:26:59.459Z,73.01
2016-12-18T00:28:09.804Z,73.01
2016-12-18T00:29:20.135Z,73.01
2016-12-18T00:30:29.850Z,73.01
2016-12-18T00:31:40.188Z,73.39
2016-12-18T00:32:50.508Z,73.39
2016-12-18T00:34:00.886Z,73.11
2016-12-18T00:35:10.599Z,73.11
2016-12-18T00:36:20.642Z,72.63
2016-12-18T00:37:30.988Z,72.63
2016-12-18T00:38:41.043Z,72.63
2016-12-18T00:39:51.384Z,72.53
2016-12-18T00:41:01.725Z,72.53
2016-12-18T00:42:11.435Z,72.53
2016-12-18T00:43:21.779Z,72.53
2016-12-18T00:44:31.473Z,72.53
2016-12-18T00:45:41.785Z,72.34
2016-12-18T00:46:51.814Z,72.34
2016-12-18T00:48:01.848Z,72.44
2016-12-18T00:49:12.203Z,72.53
2016-12-18T00:50:22.245Z,72.34
2016-12-18T00:51:32.270Z,72.44
2016-12-18T00:52:42.582Z,72.63
2016-12-18T00:53:52.927Z,72.82
2016-12-18T00:55:03.271Z,72.73
2016-12-18T00:56:13.287Z,72.73
2016-12-18T00:57:23.314Z,72.82
2016-12-18T00:58:33.626Z,72.77
2016-12-18T00:59:43.340Z,72.34
2016-12-18T01:00:53.670Z,71.81
2016-12-18T01:02:03.677Z,72
2016-12-18T01:03:14.027Z,72.96
2016-12-18T01:04:24.045Z,72
2016-12-18T01:05:34.071Z,72.1
2016-12-18T01:06:44.384Z,72.48
2016-12-18T01:07:54.400Z,72.19
2016-12-18T01:09:04.726Z,72.29
2016-12-18T01:10:14.450Z,72.29
2016-12-18T01:11:24.464Z,72.29
2016-12-18T01:12:34.495Z,72.29
2016-12-18T01:13:44.813Z,72.29
2016-12-18T01:14:55.151Z,72.48
2016-12-18T01:16:05.478Z,72.48
2016-12-18T01:17:15.488Z,72
2016-12-18T01:18:25.815Z,72
2016-12-18T01:19:35.522Z,72.57
2016-12-18T01:20:45.217Z,72.77
2016-12-18T01:21:55.231Z,72.57
2016-12-18T01:23:05.239Z,73.05
2016-12-18T01:24:15.265Z,72.77
2016-12-18T01:25:24.980Z,72.67
2016-12-18T01:26:35.297Z,72.48
2016-12-18T01:27:45.624Z,72.86
2016-12-18T01:28:55.330Z,72.57
2016-12-18T01:30:05.647Z,72.57
2016-12-18T01:31:15.973Z,72.48
2016-12-18T01:32:25.973Z,72.77
2016-12-18T01:33:36.298Z,72.57
2016-12-18T01:34:46.622Z,72.67
2016-12-18T01:35:56.942Z,72.8
2016-12-18T01:37:07.262Z,72.89
2016-12-18T01:38:17.583Z,72.8
2016-12-18T01:39:27.895Z,72.99
2016-12-18T01:40:37.917Z,72.99
2016-12-18T01:41:47.930Z,72.71
2016-12-18T01:42:57.941Z,72.52
2016-12-18T01:44:07.957Z,72.8
2016-12-18T01:45:18.270Z,72.71
2016-12-18T01:46:28.282Z,72.99
2016-12-18T01:47:38.598Z,72.71
2016-12-18T01:48:48.333Z,72.61
2016-12-18T01:49:58.356Z,72.61
2016-12-18T01:51:08.368Z,72.61
2016-12-18T01:52:18.385Z,72.42
2016-12-18T01:53:28.384Z,72.8
2016-12-18T01:54:38.714Z,72.52
2016-12-18T01:55:49.079Z,72.61
2016-12-18T01:56:59.398Z,72.71
2016-12-18T01:58:09.092Z,72.8
2016-12-18T01:59:19.430Z,73.37
2016-12-18T02:00:29.441Z,72.8
2016-12-18T02:01:39.764Z,73.27
2016-12-18T02:02:49.774Z,73.18
2016-12-18T02:04:00.092Z,73.27
2016-12-18T02:05:10.097Z,73.18
2016-12-18T02:06:19.800Z,72.99
2016-12-18T02:07:29.831Z,73.75
2016-12-18T02:08:39.852Z,73.65
2016-12-18T02:09:49.881Z,73.18
2016-12-18T02:11:00.207Z,73.46
2016-12-18T02:12:10.220Z,73.56
2016-12-18T02:13:19.930Z,73.56
2016-12-18T02:14:29.975Z,73.56
2016-12-18T02:15:40.308Z,73.56
2016-12-18T02:16:50.327Z,73.65
2016-12-18T02:18:00.357Z,73.75
2016-12-18T02:19:10.685Z,73.08
2016-12-18T02:20:21.001Z,73.08
2016-12-18T02:21:31.364Z,73.18
2016-12-18T02:22:41.698Z,73.08
2016-12-18T02:23:51.707Z,73.18
2016-12-18T02:25:01.721Z,72.89
2016-12-18T02:26:11.728Z,72.71
2016-12-18T02:27:21.741Z,72.8
2016-12-18T02:28:32.057Z,72.61
2016-12-18T02:29:42.369Z,72.61
2016-12-18T02:30:52.070Z,72.64
2016-12-18T02:32:02.388Z,72.64
2016-12-18T02:33:12.387Z,73.03
2016-12-18T02:34:22.089Z,72.64
2016-12-18T02:35:32.131Z,72.84
2016-12-18T02:36:42.449Z,72.74
2016-12-18T02:37:52.767Z,72.93
2016-12-18T02:39:03.078Z,72.84
2016-12-18T02:40:13.399Z,73.03
2016-12-18T02:41:23.406Z,72.93
2016-12-18T02:42:33.741Z,72.64
2016-12-18T02:43:44.068Z,72.74
2016-12-18T02:44:54.081Z,72.64
2016-12-18T02:46:04.123Z,72.64
2016-12-18T02:47:14.130Z,72.84
2016-12-18T02:48:24.140Z,73.03
2016-12-18T02:49:34.163Z,72.84
2016-12-18T02:50:44.171Z,72.93
2016-12-18T02:51:53.560Z,72.64
2016-12-18T02:53:03.871Z,72.93
2016-12-18T02:54:14.210Z,72.93
2016-12-18T02:55:24.252Z,72.84
2016-12-18T02:56:34.268Z,72.64
2016-12-18T02:57:44.609Z,72.64
2016-12-18T02:58:54.315Z,72.55
2016-12-18T03:00:04.337Z,72.64
2016-12-18T03:01:14.659Z,72.64
2016-12-18T03:33:13.477Z,71.71
2016-12-18T03:34:23.469Z,72.37
2016-12-18T03:35:33.822Z,73.22
2016-12-18T03:36:43.851Z,74.26
2016-12-18T03:37:53.861Z,74.74
2016-12-18T03:39:03.877Z,75.02
2016-12-18T03:40:14.187Z,75.4
2016-12-18T03:41:24.500Z,75.12
2016-12-18T03:42:34.823Z,75.15
2016-12-18T03:43:45.141Z,75.24
2016-12-18T03:44:55.456Z,75.15
2016-12-18T03:46:05.767Z,75.34
2016-12-18T03:47:16.098Z,75.47
2016-12-18T03:48:26.133Z,75.28
2016-12-18T03:49:36.136Z,74.9
2016-12-18T03:50:46.170Z,74.81
2016-12-18T03:51:56.193Z,74.95
2016-12-18T03:53:06.200Z,74.37
2016-12-18T03:54:15.882Z,74.28
2016-12-18T03:55:25.929Z,73.99
2016-12-18T03:56:35.949Z,74.28
2016-12-18T03:57:46.256Z,74.18
2016-12-18T03:58:56.269Z,73.61
2016-12-18T04:00:06.274Z,73.71
2016-12-18T04:01:16.521Z,73.52
2016-12-18T04:02:26.227Z,73.43
2016-12-18T04:03:36.553Z,73.75
2016-12-18T04:04:46.866Z,73.65
2016-12-18T04:05:56.883Z,73.65
2016-12-18T04:07:07.198Z,73.27
2016-12-18T04:08:17.221Z,73.84
2016-12-18T04:09:27.546Z,73.27
2016-12-18T04:10:37.864Z,72.99
2016-12-18T04:11:48.440Z,73.27
2016-12-18T04:12:58.141Z,72.99
2016-12-18T04:14:08.158Z,73.18
2016-12-18T04:15:18.170Z,73.08
2016-12-18T04:16:28.212Z,72.89
2016-12-18T04:17:38.524Z,72.61
2016-12-18T04:18:48.865Z,72.8
2016-12-18T04:19:58.562Z,72.71
2016-12-18T04:21:08.583Z,72.61
2016-12-18T04:22:18.587Z,72.42
2016-12-18T04:23:28.972Z,72.89
2016-12-18T04:24:38.685Z,72.8
2016-12-18T04:25:49.038Z,72.8
2016-12-18T04:26:58.732Z,72.8
2016-12-18T04:28:08.749Z,72.61
2016-12-18T04:29:18.763Z,72.89
2016-12-18T04:30:28.804Z,72.89
2016-12-18T04:31:39.130Z,72.8
2016-12-18T04:32:49.141Z,72.8
2016-12-18T04:33:59.462Z,72.61
2016-12-18T04:35:09.800Z,72.8
2016-12-18T04:36:19.821Z,72.89
2016-12-18T04:37:29.868Z,72.42
2016-12-18T04:38:39.899Z,72.52
2016-12-18T04:39:50.222Z,72.89
2016-12-18T04:41:00.548Z,71.95
2016-12-18T04:42:10.865Z,72.23
2016-12-18T04:43:20.261Z,72.23
2016-12-18T04:44:30.294Z,72.33
2016-12-18T04:45:40.360Z,72.42
2016-12-18T04:46:50.677Z,72.33
2016-12-18T04:48:00.383Z,72.61
2016-12-18T04:49:10.390Z,72.61
2016-12-18T04:50:20.711Z,72.52
2016-12-18T04:51:30.409Z,72.61
2016-12-18T04:52:40.423Z,72.71
2016-12-18T04:53:50.167Z,72.42
2016-12-18T04:55:00.513Z,72.42
2016-12-18T04:56:10.835Z,72.52
2016-12-18T04:57:21.172Z,72.52
2016-12-18T04:58:31.500Z,72.99
2016-12-18T04:59:41.210Z,72.52
2016-12-18T05:00:51.221Z,72.52
2016-12-18T05:02:01.555Z,72.42
2016-12-18T05:03:11.252Z,72.23
2016-12-18T05:04:21.270Z,72.14
2016-12-18T05:05:30.974Z,72.42
2016-12-18T05:06:41.293Z,72.61
2016-12-18T05:07:51.337Z,72.33
2016-12-18T05:09:01.659Z,72.52
2016-12-18T05:10:11.702Z,72.33
2016-12-18T05:11:21.761Z,72.33
2016-12-18T05:12:32.089Z,72.33
2016-12-18T05:13:42.447Z,72.33
2016-12-18T05:14:52.773Z,72.61
2016-12-18T05:16:02.780Z,72.71
2016-12-18T05:17:12.788Z,72.52
2016-12-18T05:18:23.113Z,72.55
2016-12-18T05:19:33.110Z,72.74
2016-12-18T05:20:43.128Z,72.74
2016-12-18T05:21:53.145Z,72.93
2016-12-18T05:23:03.164Z,72.84
2016-12-18T05:24:13.190Z,72.74
2016-12-18T05:25:22.908Z,72.55
2016-12-18T05:26:32.918Z,71.89
2016-12-18T05:27:42.927Z,72.55
2016-12-18T05:28:52.323Z,72.84
2016-12-18T05:30:02.355Z,72.84
2016-12-18T05:31:12.052Z,72.84
2016-12-18T05:32:21.760Z,72.84
2016-12-18T05:33:31.781Z,72.74
2016-12-18T05:34:42.098Z,72.55
2016-12-18T05:35:52.159Z,72.55
2016-12-18T05:37:02.465Z,72.74
2016-12-18T05:38:11.853Z,72.55
2016-12-18T05:39:21.869Z,72.64
2016-12-18T05:40:31.881Z,72.55
2016-12-18T05:41:41.893Z,72.84
2016-12-18T05:42:52.206Z,72.93
2016-12-18T05:44:02.540Z,72.84
2016-12-18T05:45:12.580Z,72.55
2016-12-18T05:46:22.586Z,71.98
2016-12-18T05:47:32.291Z,71.89
2016-12-18T05:48:42.332Z,71.89
2016-12-18T05:49:52.364Z,71.98
2016-12-18T05:51:02.746Z,72.45
2016-12-18T05:52:13.065Z,71.98
2016-12-18T05:53:23.386Z,72.55
2016-12-18T05:54:33.437Z,72.84
2016-12-18T05:55:43.444Z,72.84
2016-12-18T05:56:53.462Z,72.64
2016-12-18T05:58:03.182Z,72.84
2016-12-18T05:59:13.188Z,72.74
2016-12-18T06:00:23.201Z,72.55
2016-12-18T06:01:33.211Z,72.74
2016-12-18T06:02:43.532Z,72.84
2016-12-18T06:03:53.600Z,72.84
2016-12-18T06:05:03.969Z,72.84
2016-12-18T06:06:14.283Z,72.55
2016-12-18T06:07:23.681Z,72.55
2016-12-18T06:08:34.014Z,72.08
2016-12-18T06:09:43.728Z,71.98
2016-12-18T06:10:53.825Z,72.08
2016-12-18T06:12:03.842Z,72.55
2016-12-18T06:13:13.554Z,72.55
2016-12-18T06:14:23.871Z,72.74
2016-12-18T06:15:33.888Z,72.64
2016-12-18T06:16:43.586Z,72.45
2016-12-18T06:17:53.597Z,72.64
2016-12-18T06:19:03.602Z,72.64
2016-12-18T06:20:13.639Z,72.74
2016-12-18T06:21:23.951Z,72.64
2016-12-18T06:22:34.272Z,72.93
2016-12-18T06:23:44.610Z,72.74
2016-12-18T06:24:54.615Z,72.55
2016-12-18T06:26:04.943Z,71.98
2016-12-18T06:27:15.260Z,71.89
2016-12-18T06:28:25.580Z,71.89
2016-12-18T06:29:35.903Z,72.64
2016-12-18T06:30:46.220Z,71.89
2016-12-18T06:31:56.266Z,72.55
2016-12-18T06:33:05.967Z,72.45
2016-12-18T06:34:16.294Z,72.84
2016-12-18T06:35:26.316Z,72.74
2016-12-18T06:36:36.635Z,72.74
2016-12-18T06:37:46.954Z,72.74
2016-12-18T06:38:57.275Z,72.64
2016-12-18T06:40:07.292Z,72.64
2016-12-18T06:41:17.310Z,72.55
2016-12-18T06:42:27.316Z,72.93
2016-12-18T06:43:37.638Z,72.64
2016-12-18T06:44:47.344Z,72.74
2016-12-18T06:45:57.665Z,72.55
2016-12-18T06:47:07.991Z,72.64
2016-12-18T06:48:17.724Z,72.55
2016-12-18T06:49:27.421Z,72.45
2016-12-18T06:50:37.118Z,72.36
2016-12-18T06:51:47.433Z,72.45
2016-12-18T06:52:57.451Z,72.36
2016-12-18T06:54:07.138Z,72.17
2016-12-18T06:55:17.157Z,72.36
2016-12-18T06:56:27.489Z,72.45
2016-12-18T06:57:37.483Z,72.36
2016-12-18T06:58:47.495Z,72.55
2016-12-18T06:59:57.809Z,72.55
2016-12-18T07:01:08.152Z,72.36
2016-12-18T07:02:18.495Z,72.36
2016-12-18T07:03:28.213Z,72.17
2016-12-18T07:04:38.227Z,71.98
2016-12-18T07:05:48.573Z,72.08
2016-12-18T07:06:58.280Z,72.64
2016-12-18T07:08:08.603Z,72.55
2016-12-18T07:09:18.980Z,72.08
2016-12-18T07:10:28.709Z,72.08
2016-12-18T07:11:39.022Z,72.27
2016-12-18T07:12:49.049Z,72.36
2016-12-18T07:13:59.380Z,71.89
2016-12-18T07:15:09.732Z,72.27
2016-12-18T07:16:19.770Z,72.42
2016-12-18T07:17:30.155Z,72.27
2016-12-18T07:18:40.483Z,72.08
2016-12-18T07:19:50.844Z,72.45
2016-12-18T07:21:00.575Z,72.45
2016-12-18T07:22:10.896Z,72.36
2016-12-18T07:23:20.939Z,72.64
2016-12-18T07:24:31.254Z,72.64
2016-12-18T07:25:41.582Z,72.84
2016-12-18T07:26:51.588Z,72.55
2016-12-18T07:28:01.916Z,72.74
2016-12-18T07:29:12.234Z,72.55
2016-12-18T07:30:22.559Z,71.98
2016-12-18T07:31:32.575Z,72.08
2016-12-18T07:32:42.829Z,72.08
2016-12-18T07:33:53.146Z,72.27
2016-12-18T07:35:03.397Z,72.17
2016-12-18T07:36:13.137Z,72.27
2016-12-18T07:37:22.852Z,72.08
2016-12-18T07:38:33.206Z,72.08
2016-12-18T07:39:43.221Z,72.08
2016-12-18T07:40:53.569Z,71.98
2016-12-18T07:42:03.277Z,71.98
2016-12-18T07:43:13.658Z,72.08
2016-12-18T07:44:24.013Z,72.08
2016-12-18T07:45:34.340Z,72.17
2016-12-18T07:46:44.353Z,72.36
2016-12-18T07:47:54.359Z,72.3
2016-12-18T07:49:04.460Z,72.4
2016-12-18T07:50:14.468Z,72.36
2016-12-18T07:51:24.803Z,72.4
2016-12-18T07:52:35.162Z,72.21
2016-12-18T07:53:45.479Z,72.3
2016-12-18T07:54:55.525Z,72.4
2016-12-18T07:56:05.534Z,72.02
2016-12-18T07:57:15.546Z,71.83
2016-12-18T07:58:25.868Z,71.83
2016-12-18T07:59:36.196Z,71.92
2016-12-18T08:00:46.216Z,72.49
2016-12-18T08:01:55.923Z,72.4
2016-12-18T08:03:05.934Z,72.3
2016-12-18T08:04:15.653Z,72.49
2016-12-18T08:05:25.982Z,72.3
2016-12-18T08:06:36.033Z,72.11
2016-12-18T08:07:46.036Z,72.3
2016-12-18T08:08:55.768Z,72.11
2016-12-18T08:10:05.164Z,72.21
2016-12-18T08:11:15.167Z,72.21
2016-12-18T08:12:25.506Z,72.21
2016-12-18T08:13:35.839Z,72.11
2016-12-18T08:14:46.163Z,72.11
2016-12-18T08:15:56.498Z,72.21
2016-12-18T08:17:06.843Z,72.11
2016-12-18T08:18:16.885Z,72.11
2016-12-18T08:19:27.216Z,72.3
2016-12-18T08:20:37.540Z,72.3
2016-12-18T08:21:47.880Z,72.21
2016-12-18T08:22:57.897Z,72.21
2016-12-18T08:24:07.923Z,72.21
2016-12-18T08:25:18.240Z,72.21
2016-12-18T08:26:28.578Z,72.3
2016-12-18T08:27:38.289Z,72.11
2016-12-18T08:28:48.301Z,72.11
2016-12-18T08:29:58.323Z,72.97
2016-12-18T08:31:08.350Z,72.49
2016-12-18T08:32:18.369Z,71.92
2016-12-18T08:33:28.383Z,72.11
2016-12-18T08:34:38.713Z,71.83
2016-12-18T08:35:48.422Z,71.83
2016-12-18T08:36:58.762Z,72.11
2016-12-18T08:38:08.781Z,72.11
2016-12-18T08:39:18.526Z,72.11
2016-12-18T08:40:28.849Z,71.92
2016-12-18T08:41:38.270Z,71.92
2016-12-18T08:42:48.337Z,72.11
2016-12-18T08:43:58.381Z,72.02
2016-12-18T08:45:08.396Z,72.15
2016-12-18T08:46:18.430Z,72.25
2016-12-18T08:47:28.160Z,72.3
2016-12-18T08:48:38.481Z,72.15
2016-12-18T08:49:48.502Z,72.34
2016-12-18T08:50:58.833Z,72.15
2016-12-18T08:52:08.855Z,72.11
2016-12-18T08:53:18.883Z,72.21
2016-12-18T08:54:28.918Z,71.83
2016-12-18T08:55:39.282Z,72.68
2016-12-18T08:56:49.313Z,72.68
2016-12-18T08:57:59.336Z,72.11
2016-12-18T08:59:09.666Z,71.92
2016-12-18T09:00:19.370Z,72.11
2016-12-18T09:01:29.114Z,72.21
2016-12-18T09:02:39.441Z,72.3
2016-12-18T09:03:49.458Z,72.3
2016-12-18T09:04:59.480Z,72.11
2016-12-18T09:06:09.173Z,72.34
2016-12-18T09:07:19.189Z,72.49
2016-12-18T09:08:28.906Z,72.59
2016-12-18T09:09:39.232Z,72.25
2016-12-18T09:10:48.956Z,71.86
2016-12-18T09:11:59.296Z,72.06
2016-12-18T09:13:09.323Z,72.06
2016-12-18T09:14:19.679Z,71.96
2016-12-18T09:15:29.697Z,71.96
2016-12-18T09:16:40.032Z,71.86
2016-12-18T09:17:50.049Z,72.15
2016-12-18T09:19:00.049Z,71.86
2016-12-18T09:20:10.080Z,71.96
2016-12-18T09:21:20.419Z,71.96
2016-12-18T09:22:30.750Z,71.86
2016-12-18T09:23:40.773Z,72.15
2016-12-18T09:24:51.115Z,71.96
2016-12-18T09:26:01.486Z,71.86
2016-12-18T09:27:11.834Z,72.15
2016-12-18T09:28:21.581Z,71.86
2016-12-18T09:29:31.602Z,71.71
2016-12-18T09:30:41.621Z,71.43
2016-12-18T09:31:51.957Z,71.71
2016-12-18T09:33:01.968Z,71.71
2016-12-18T09:34:12.330Z,72
2016-12-18T09:35:22.676Z,71.81
2016-12-18T09:36:32.374Z,71.9
2016-12-18T09:37:42.416Z,72
2016-12-18T09:38:52.762Z,71.71
2016-12-18T09:40:02.794Z,72
2016-12-18T09:41:12.815Z,72
2016-12-18T09:42:22.552Z,72.09
2016-12-18T09:43:32.556Z,72.19
2016-12-18T09:44:42.895Z,72.28
2016-12-18T09:45:52.637Z,72
2016-12-18T09:47:02.648Z,71.9
2016-12-18T09:48:12.975Z,72.19
2016-12-18T09:49:22.994Z,71.81
2016-12-18T09:50:33.023Z,72.19
2016-12-18T09:51:42.436Z,72.19
2016-12-18T09:52:52.767Z,72
2016-12-18T09:54:03.085Z,71.81
2016-12-18T09:55:13.110Z,71.43
2016-12-18T09:56:23.451Z,71.71
2016-12-18T09:57:33.804Z,72
2016-12-18T09:58:44.128Z,71.71
2016-12-18T09:59:54.153Z,71.43
2016-12-18T10:01:03.865Z,71.62
2016-12-18T10:02:14.191Z,71.9
2016-12-18T10:03:24.518Z,71.84
2016-12-18T10:04:34.846Z,71.75
2016-12-18T10:05:44.537Z,71.56
2016-12-18T10:06:54.864Z,71.75
2016-12-18T10:08:04.875Z,72.03
2016-12-18T10:09:15.222Z,71.62
2016-12-18T10:10:25.238Z,71.75
2016-12-18T10:11:35.251Z,71.94
2016-12-18T10:12:45.251Z,72.03
2016-12-18T10:13:54.960Z,72.03
2016-12-18T10:15:05.296Z,71.84
2016-12-18T10:16:15.327Z,71.75
2016-12-18T10:17:25.342Z,71.27
2016-12-18T10:18:35.687Z,71.22
2016-12-18T10:19:46.022Z,71.59
2016-12-18T10:20:56.355Z,71.69
2016-12-18T10:22:06.421Z,71.22
2016-12-18T10:23:16.762Z,71.41
2016-12-18T10:24:27.104Z,71.41
2016-12-18T10:25:37.428Z,71.78
2016-12-18T10:26:47.437Z,71.88
2016-12-18T10:27:57.791Z,71.5
2016-12-18T10:29:08.131Z,72.26
2016-12-18T10:30:18.154Z,72.13
2016-12-18T10:31:27.239Z,72.45
2016-12-18T10:32:37.603Z,72.03
2016-12-18T10:33:47.638Z,72.74
2016-12-18T10:34:57.651Z,72.03
2016-12-18T10:36:07.671Z,72.13
2016-12-18T10:37:17.391Z,71.97
2016-12-18T10:38:27.405Z,72.22
2016-12-18T10:39:36.804Z,72.26
2016-12-18T10:40:46.821Z,71.84
2016-12-18T10:41:57.136Z,72.6
2016-12-18T10:43:06.867Z,72.32
2016-12-18T10:44:16.884Z,72.26
2016-12-18T10:45:27.221Z,72.22
2016-12-18T10:46:37.249Z,72.35
2016-12-18T10:47:47.579Z,72.22
2016-12-18T10:48:57.917Z,72.22
2016-12-18T10:50:08.254Z,72.22
2016-12-18T10:51:18.634Z,72.22
2016-12-18T10:52:28.960Z,72.13
2016-12-18T10:53:39.004Z,72.41
2016-12-18T10:54:49.330Z,72.32
2016-12-18T10:55:59.675Z,72.41
2016-12-18T10:57:09.999Z,72.22
2016-12-18T10:58:20.023Z,72.22
2016-12-18T10:59:30.140Z,72.32
2016-12-18T11:00:40.497Z,72.32
2016-12-18T11:01:50.194Z,72.32
2016-12-18T11:03:00.220Z,72.41
2016-12-18T11:04:10.254Z,72.41
2016-12-18T11:05:20.594Z,72.32
2016-12-18T11:06:30.934Z,72.41
2016-12-18T11:07:41.264Z,72.41
2016-12-18T11:08:51.588Z,72.32
2016-12-18T11:10:01.289Z,72.22
2016-12-18T11:11:11.620Z,72.22
2016-12-18T11:12:21.953Z,72.22
2016-12-18T11:13:32.032Z,72.32
2016-12-18T11:14:42.049Z,72.22
2016-12-18T11:15:52.073Z,72.41
2016-12-18T11:17:01.789Z,72.22
2016-12-18T11:18:12.126Z,72.32
2016-12-18T11:19:22.158Z,72.32
2016-12-18T11:20:31.865Z,72.22
2016-12-18T11:21:42.191Z,72.22
2016-12-18T11:22:52.215Z,72.41
2016-12-18T11:24:02.230Z,72.41
2016-12-18T11:25:12.262Z,72.13
2016-12-18T11:26:22.590Z,72.03
2016-12-18T11:27:48.486Z,72.7
2016-12-18T11:28:58.813Z,72.7
2016-12-18T11:30:09.136Z,72.89
2016-12-18T11:31:19.465Z,72.79
2016-12-18T11:32:29.803Z,72.7
2016-12-18T11:33:39.816Z,72.7
2016-12-18T11:34:49.832Z,72.6
2016-12-18T11:36:00.158Z,72.7
2016-12-18T11:37:10.183Z,72.7
2016-12-18T11:38:20.215Z,72.75
2016-12-18T11:39:29.934Z,72.99
2016-12-18T11:40:40.274Z,72.75
2016-12-18T11:41:50.560Z,72.66
2016-12-18T11:43:00.578Z,72.85
2016-12-18T11:44:10.909Z,72.75
2016-12-18T11:45:21.240Z,72.85
2016-12-18T11:46:31.572Z,72.56
2016-12-18T11:47:41.599Z,72.47
2016-12-18T11:48:51.617Z,72.47
2016-12-18T11:50:01.934Z,72.56
2016-12-18T11:51:11.988Z,72.66
2016-12-18T11:52:22.330Z,72.56
2016-12-18T11:53:32.650Z,72.75
2016-12-18T11:54:42.984Z,72.47
2016-12-18T11:55:53.319Z,72.47
2016-12-18T11:57:03.030Z,72.56
2016-12-18T11:58:12.729Z,72.47
2016-12-18T11:59:22.760Z,72.85
2016-12-18T12:00:32.773Z,72.56
2016-12-18T12:01:42.812Z,72.56
2016-12-18T12:02:52.832Z,72.85
2016-12-18T12:04:02.852Z,72.85
2016-12-18T12:05:13.188Z,73.04
2016-12-18T12:06:23.543Z,72.95
2016-12-18T12:07:33.909Z,72.85
2016-12-18T12:08:43.930Z,72.85
2016-12-18T12:09:54.247Z,72.95
2016-12-18T12:11:03.949Z,72.75
2016-12-18T12:12:14.002Z,72.09
2016-12-18T12:13:24.324Z,72
2016-12-18T12:14:34.353Z,72.09
2016-12-18T12:15:44.407Z,72.85
2016-12-18T12:16:54.108Z,72.85
2016-12-18T12:18:04.448Z,72.85
2016-12-18T12:19:14.461Z,72.85
2016-12-18T12:20:24.481Z,72.56
2016-12-18T12:21:34.823Z,72.47
2016-12-18T12:22:44.541Z,72.53
2016-12-18T12:23:54.882Z,72.34
2016-12-18T12:25:05.209Z,73.19
2016-12-18T12:26:15.225Z,72.34
2016-12-18T12:27:25.563Z,72.15
2016-12-18T12:28:35.585Z,72.15
2016-12-18T12:29:45.301Z,72.34
2016-12-18T12:30:55.653Z,72.44
2016-12-18T12:32:05.996Z,72.72
2016-12-18T12:33:16.031Z,72.15
2016-12-18T12:34:26.327Z,72.34
2016-12-18T12:35:37.276Z,71.96
2016-12-18T12:36:47.309Z,72.72
2016-12-18T12:37:57.328Z,72.15
2016-12-18T12:39:07.354Z,72.63
2016-12-18T12:40:17.384Z,71.96
2016-12-18T12:41:27.395Z,72.34
2016-12-18T12:42:37.420Z,72.53
2016-12-18T12:43:47.439Z,72.53
2016-12-18T12:44:57.766Z,72.72
2016-12-18T12:46:07.795Z,72.72
2016-12-18T12:47:17.812Z,72.81
2016-12-18T12:48:28.131Z,72.81
2016-12-18T12:49:38.166Z,72.72
2016-12-18T12:50:48.183Z,72.63
2016-12-18T12:51:58.220Z,72.81
2016-12-18T12:53:07.936Z,72.81
2016-12-18T12:54:17.945Z,72.91
2016-12-18T12:55:27.974Z,72.72
2016-12-18T12:56:38.323Z,72.91
2016-12-18T12:57:48.679Z,72.72
2016-12-18T12:58:59.039Z,72.53
2016-12-18T13:00:09.367Z,72.72
2016-12-18T13:01:19.698Z,72.72
2016-12-18T13:02:29.731Z,72.72
2016-12-18T13:03:40.091Z,72.63
2016-12-18T13:04:50.433Z,72.72
2016-12-18T13:06:00.791Z,72.53
2016-12-18T13:07:11.148Z,72.72
2016-12-18T13:08:21.500Z,72.72
2016-12-18T13:09:31.849Z,72.53
2016-12-18T13:10:42.169Z,72.63
2016-12-18T13:11:52.191Z,72.44
2016-12-18T13:13:02.220Z,72.63
2016-12-18T13:14:12.238Z,72.53
2016-12-18T13:15:21.355Z,72.72
2016-12-18T13:16:31.090Z,72.81
2016-12-18T13:17:41.431Z,72.53
2016-12-18T13:18:51.154Z,72.53
2016-12-18T13:20:00.868Z,72.53
2016-12-18T13:21:10.895Z,72.44
2016-12-18T13:22:21.244Z,72.53
2016-12-18T13:23:31.264Z,72.53
2016-12-18T13:24:41.290Z,72.44
2016-12-18T13:25:51.653Z,72.44
2016-12-18T13:27:01.043Z,72.34
2016-12-18T13:28:10.738Z,72.72
2016-12-18T13:29:21.080Z,72.15
2016-12-18T13:30:31.444Z,72.15
2016-12-18T13:31:41.449Z,72.25
2016-12-18T13:32:51.474Z,72.63
2016-12-18T13:34:01.803Z,72.63
2016-12-18T13:35:11.828Z,72.44
2016-12-18T13:36:21.860Z,72.34
2016-12-18T13:37:31.915Z,73.1
2016-12-18T13:38:41.922Z,72.53
2016-12-18T13:39:51.641Z,73.1
2016-12-18T13:41:01.999Z,72.72
2016-12-18T13:42:12.030Z,72.34
2016-12-18T13:43:22.386Z,72.44
2016-12-18T13:44:32.397Z,72.44
2016-12-18T13:45:42.738Z,72.25
2016-12-18T13:46:52.750Z,72.72
2016-12-18T13:48:02.797Z,72.63
2016-12-18T13:49:12.812Z,72.34
2016-12-18T13:50:23.140Z,73
2016-12-18T13:51:33.168Z,72.15
2016-12-18T13:52:43.192Z,72.15
2016-12-18T13:53:53.526Z,73.19
2016-12-18T13:55:03.877Z,72.25
2016-12-18T13:56:14.202Z,72.34
2016-12-18T13:57:24.541Z,72.81
2016-12-18T13:58:34.906Z,72.81
2016-12-18T13:59:44.928Z,72.91
2016-12-18T14:00:55.269Z,72.91
2016-12-18T14:02:05.599Z,72.91
2016-12-18T14:03:15.932Z,73
2016-12-18T14:04:25.964Z,72.91
2016-12-18T14:05:36.344Z,72.91
2016-12-18T14:06:45.745Z,72.91
2016-12-18T14:07:56.081Z,72.88
2016-12-18T14:09:06.110Z,72.81
2016-12-18T14:10:16.456Z,72.81
2016-12-18T14:11:26.168Z,72.78
2016-12-18T14:12:36.215Z,72.91
2016-12-18T14:13:45.286Z,73.1
2016-12-18T14:14:55.626Z,72.91
2016-12-18T14:16:05.645Z,72.91
2016-12-18T14:17:15.672Z,72.97
2016-12-18T14:18:25.683Z,72.78
2016-12-18T14:19:35.379Z,72.68
2016-12-18T14:20:45.989Z,72.59
2016-12-18T14:21:56.019Z,72.68
2016-12-18T14:23:06.345Z,72.68
2016-12-18T14:24:16.357Z,72.59
2016-12-18T14:25:26.381Z,72.78
2016-12-18T14:26:36.730Z,72.68
2016-12-18T14:27:46.765Z,72.68
2016-12-18T14:28:56.794Z,72.78
2016-12-18T14:30:07.130Z,73.25
2016-12-18T14:31:17.144Z,72.88
2016-12-18T14:32:27.479Z,73.35
2016-12-18T14:33:37.226Z,72.78
2016-12-18T14:34:47.291Z,72.78
2016-12-18T14:35:57.375Z,72.49
2016-12-18T14:37:07.715Z,72.68
2016-12-18T14:38:17.764Z,72.78
2016-12-18T14:39:27.840Z,72.68
2016-12-18T14:40:37.880Z,72.88
2016-12-18T14:41:48.213Z,72.59
2016-12-18T14:42:58.545Z,72.49
2016-12-18T14:44:08.886Z,72.97
2016-12-18T14:45:18.904Z,72.78
2016-12-18T14:46:28.614Z,72.59
2016-12-18T14:47:38.327Z,72.88
2016-12-18T14:48:48.351Z,72.78
2016-12-18T14:49:58.683Z,72.97
2016-12-18T14:51:08.706Z,72.88
2016-12-18T14:52:19.043Z,72.88
2016-12-18T14:53:29.066Z,72.68
2016-12-18T14:54:39.075Z,72.68
2016-12-18T14:55:49.427Z,72.88
2016-12-18T14:56:59.772Z,73.07
2016-12-18T14:58:09.834Z,72.59
2016-12-18T14:59:19.861Z,72.49
2016-12-18T15:00:29.580Z,72.68
2016-12-18T15:01:39.949Z,72.72
2016-12-18T15:02:50.355Z,72.11
2016-12-18T15:04:00.695Z,72.3
2016-12-18T15:05:10.737Z,72.4
2016-12-18T15:06:21.078Z,72.88
2016-12-18T15:07:31.424Z,73.25
2016-12-18T15:08:41.510Z,72.88
2016-12-18T15:09:51.238Z,72.97
2016-12-18T15:11:01.264Z,72.97
2016-12-18T15:12:11.622Z,72.88
2016-12-18T15:13:21.962Z,73.07
2016-12-18T15:14:31.676Z,72.88
2016-12-18T15:15:41.701Z,73.07
2016-12-18T15:16:52.043Z,72.78
2016-12-18T15:18:02.059Z,72.97
2016-12-18T15:19:12.387Z,72.68
2016-12-18T15:20:22.720Z,72.88
2016-12-18T15:21:32.462Z,73.16
2016-12-18T15:22:42.779Z,72.88
2016-12-18T15:23:53.105Z,72.88
2016-12-18T15:25:03.440Z,73.07
2016-12-18T15:26:13.771Z,73.07
2016-12-18T15:27:23.494Z,72.88
2016-12-18T15:28:33.564Z,72.88
2016-12-18T15:29:43.637Z,73.07
2016-12-18T15:30:53.984Z,72.88
2016-12-18T15:32:04.014Z,72.88
2016-12-18T15:33:14.382Z,73.07
2016-12-18T15:34:24.757Z,72.97
2016-12-18T15:35:34.797Z,72.78
2016-12-18T15:36:44.539Z,73.16